createdAt,value
2017-05-03T00:00:30.357Z,1015.59
2017-05-03T00:01:11.417Z,1015.54
2017-05-03T00:01:52.524Z,1015.64
2017-05-03T00:02:33.347Z,1015.56
2017-05-03T00:03:14.015Z,1015.58
2017-05-03T00:03:54.937Z,1015.56
2017-05-03T00:04:35.725Z,1015.59
2017-05-03T00:05:16.410Z,1015.53
2017-05-03T00:05:57.162Z,1015.59
2017-05-03T00:06:38.170Z,1015.6
2017-05-03T00:07:18.841Z,1015.57
2017-05-03T00:07:59.607Z,1015.59
2017-05-03T00:08:40.560Z,1015.58
2017-05-03T00:09:21.142Z,1015.53
2017-05-03T00:10:01.721Z,1015.58
2017-05-03T00:10:42.297Z,1015.58
2017-05-03T00:11:22.856Z,1015.61
2017-05-03T00:12:03.438Z,1015.64
2017-05-03T00:12:44.003Z,1015.62
2017-05-03T00:13:24.581Z,1015.64
2017-05-03T00:14:05.156Z,1015.58
2017-05-03T00:14:45.737Z,1015.63
2017-05-03T00:15:26.304Z,1015.6
2017-05-03T00:16:06.924Z,1015.58
2017-05-03T00:16:47.495Z,1015.57
2017-05-03T00:17:28.104Z,1015.59
2017-05-03T00:18:08.692Z,1015.61
2017-05-03T00:18:49.269Z,1015.6
2017-05-03T00:19:29.869Z,1015.61
2017-05-03T00:20:10.434Z,1015.64
2017-05-03T00:20:51.029Z,1015.55
2017-05-03T00:21:31.608Z,1015.61
2017-05-03T00:22:12.261Z,1015.61
2017-05-03T00:22:52.840Z,1015.64
2017-05-03T00:23:33.417Z,1015.61
2017-05-03T00:24:14.023Z,1015.63
2017-05-03T00:24:54.593Z,1015.64
2017-05-03T00:25:35.192Z,1015.63
2017-05-03T00:26:15.764Z,1015.66
2017-05-03T00:26:56.346Z,1015.62
2017-05-03T00:27:36.938Z,1015.66
2017-05-03T00:28:17.528Z,1015.67
2017-05-03T00:28:58.120Z,1015.65
2017-05-03T00:29:38.703Z,1015.65
2017-05-03T00:30:19.286Z,1015.68
2017-05-03T00:30:59.871Z,1015.66
2017-05-03T00:31:40.487Z,1015.67
2017-05-03T00:32:21.075Z,1015.66
2017-05-03T00:33:01.674Z,1015.66
2017-05-03T00:33:42.273Z,1015.71
2017-05-03T00:34:22.862Z,1015.74
2017-05-03T00:35:03.451Z,1015.7
2017-05-03T00:35:44.021Z,1015.71
2017-05-03T00:36:24.585Z,1015.75
2017-05-03T00:37:05.192Z,1015.73
2017-05-03T00:37:45.762Z,1015.75
2017-05-03T00:38:26.347Z,1015.76
2017-05-03T00:39:06.924Z,1015.78
2017-05-03T00:39:47.531Z,1015.76
2017-05-03T00:40:28.105Z,1015.75
2017-05-03T00:41:08.682Z,1015.77
2017-05-03T00:41:49.266Z,1015.79
2017-05-03T00:42:29.857Z,1015.75
2017-05-03T00:43:10.444Z,1015.82
2017-05-03T00:43:51.038Z,1015.86
2017-05-03T00:44:31.594Z,1015.84
2017-05-03T00:45:12.186Z,1015.89
2017-05-03T00:45:52.755Z,1015.94
2017-05-03T00:46:33.323Z,1015.94
2017-05-03T00:47:13.904Z,1015.91
2017-05-03T00:47:54.503Z,1015.9
2017-05-03T00:48:35.085Z,1015.94
2017-05-03T00:49:15.654Z,1015.92
2017-05-03T00:49:56.222Z,1015.93
2017-05-03T00:50:36.810Z,1015.9
2017-05-03T00:51:17.403Z,1015.93
2017-05-03T00:51:57.977Z,1015.94
2017-05-03T00:52:38.565Z,1015.92
2017-05-03T00:53:19.147Z,1015.97
2017-05-03T00:53:59.732Z,1015.99
2017-05-03T00:54:41.340Z,1015.95
2017-05-03T00:55:21.926Z,1015.99
2017-05-03T00:56:02.523Z,1015.99
2017-05-03T00:56:43.107Z,1016
2017-05-03T00:57:23.713Z,1016
2017-05-03T00:58:04.312Z,1015.97
2017-05-03T00:58:44.899Z,1015.95
2017-05-03T00:59:25.471Z,1015.96
2017-05-03T01:00:06.083Z,1015.96
2017-05-03T01:00:46.682Z,1015.96
2017-05-03T01:01:27.277Z,1015.99
2017-05-03T01:02:07.851Z,1015.99
2017-05-03T01:02:48.654Z,1015.99
2017-05-03T01:03:29.095Z,1016.03
2017-05-03T01:04:09.690Z,1016.02
2017-05-03T01:04:50.268Z,1015.99
2017-05-03T01:05:30.853Z,1016.02
2017-05-03T01:06:11.442Z,1016.09
2017-05-03T01:06:52.022Z,1016.09
2017-05-03T01:07:32.655Z,1016.07
2017-05-03T01:08:13.263Z,1016.05
2017-05-03T01:08:53.842Z,1016.1
2017-05-03T01:09:34.427Z,1016.12
2017-05-03T01:10:15.013Z,1016.08
2017-05-03T01:10:55.610Z,1016.1
2017-05-03T01:11:36.180Z,1016.07
2017-05-03T01:12:16.797Z,1016.07
2017-05-03T01:12:57.383Z,1016.07
2017-05-03T01:13:37.974Z,1016.1
2017-05-03T01:14:18.592Z,1016.05
2017-05-03T01:14:59.201Z,1016.12
2017-05-03T01:15:39.796Z,1016.12
2017-05-03T01:16:20.379Z,1016.08
2017-05-03T01:17:00.966Z,1016.13
2017-05-03T01:17:41.552Z,1016.15
2017-05-03T01:18:22.133Z,1016.15
2017-05-03T01:19:02.745Z,1016.22
2017-05-03T01:19:43.338Z,1016.21
2017-05-03T01:20:23.945Z,1016.24
2017-05-03T01:21:04.492Z,1016.26
2017-05-03T01:21:45.091Z,1016.27
2017-05-03T01:22:25.800Z,1016.3
2017-05-03T01:23:06.369Z,1016.32
2017-05-03T01:23:46.962Z,1016.31
2017-05-03T01:24:27.554Z,1016.3
2017-05-03T01:25:08.142Z,1016.26
2017-05-03T01:25:48.721Z,1016.28
2017-05-03T01:26:29.327Z,1016.24
2017-05-03T01:27:09.922Z,1016.25
2017-05-03T01:27:50.513Z,1016.25
2017-05-03T01:28:31.096Z,1016.27
2017-05-03T01:29:11.667Z,1016.24
2017-05-03T01:29:52.241Z,1016.24
2017-05-03T01:30:32.823Z,1016.23
2017-05-03T01:31:13.433Z,1016.23
2017-05-03T01:31:54.040Z,1016.23
2017-05-03T01:32:34.641Z,1016.23
2017-05-03T01:33:15.247Z,1016.24
2017-05-03T01:33:55.844Z,1016.29
2017-05-03T01:34:36.432Z,1016.28
2017-05-03T01:35:17.049Z,1016.31
2017-05-03T01:35:57.641Z,1016.28
2017-05-03T01:36:38.214Z,1016.31
2017-05-03T01:37:18.848Z,1016.3
2017-05-03T01:37:59.449Z,1016.3
2017-05-03T01:38:40.060Z,1016.34
2017-05-03T01:39:20.633Z,1016.31
2017-05-03T01:40:01.209Z,1016.33
2017-05-03T01:40:41.788Z,1016.38
2017-05-03T01:41:22.376Z,1016.34
2017-05-03T01:42:02.967Z,1016.38
2017-05-03T01:42:43.570Z,1016.34
2017-05-03T01:43:24.212Z,1016.33
2017-05-03T01:44:04.833Z,1016.39
2017-05-03T01:44:45.430Z,1016.36
2017-05-03T01:45:26.031Z,1016.36
2017-05-03T01:46:06.640Z,1016.4
2017-05-03T01:46:47.240Z,1016.42
2017-05-03T01:47:27.857Z,1016.42
2017-05-03T01:48:08.452Z,1016.41
2017-05-03T01:48:49.068Z,1016.41
2017-05-03T01:49:29.654Z,1016.41
2017-05-03T01:50:10.254Z,1016.39
2017-05-03T01:50:50.865Z,1016.46
2017-05-03T01:51:31.449Z,1016.44
2017-05-03T01:52:12.065Z,1016.47
2017-05-03T01:52:52.665Z,1016.51
2017-05-03T01:53:33.260Z,1016.51
2017-05-03T01:54:13.863Z,1016.53
2017-05-03T01:54:54.444Z,1016.47
2017-05-03T01:55:35.024Z,1016.49
2017-05-03T01:56:15.611Z,1016.56
2017-05-03T01:56:56.210Z,1016.49
2017-05-03T01:57:36.826Z,1016.57
2017-05-03T01:58:17.422Z,1016.57
2017-05-03T01:58:58.026Z,1016.61
2017-05-03T01:59:38.665Z,1016.58
2017-05-03T02:00:19.260Z,1016.62
2017-05-03T02:00:59.842Z,1016.6
2017-05-03T02:01:40.433Z,1016.58
2017-05-03T02:02:21.030Z,1016.61
2017-05-03T02:03:01.597Z,1016.6
2017-05-03T02:03:42.182Z,1016.62
2017-05-03T02:04:22.750Z,1016.61
2017-05-03T02:05:03.340Z,1016.61
2017-05-03T02:05:43.978Z,1016.59
2017-05-03T02:06:24.554Z,1016.58
2017-05-03T02:07:05.116Z,1016.59
2017-05-03T02:07:45.698Z,1016.62
2017-05-03T02:08:26.314Z,1016.62
2017-05-03T02:09:06.913Z,1016.65
2017-05-03T02:09:47.490Z,1016.66
2017-05-03T02:10:28.118Z,1016.63
2017-05-03T02:11:08.715Z,1016.6
2017-05-03T02:11:49.304Z,1016.62
2017-05-03T02:12:29.919Z,1016.6
2017-05-03T02:13:10.490Z,1016.56
2017-05-03T02:13:51.078Z,1016.56
2017-05-03T02:14:31.679Z,1016.58
2017-05-03T02:15:12.241Z,1016.55
2017-05-03T02:15:52.832Z,1016.56
2017-05-03T02:16:33.425Z,1016.55
2017-05-03T02:17:13.993Z,1016.59
2017-05-03T02:17:54.581Z,1016.59
2017-05-03T02:18:35.198Z,1016.56
2017-05-03T02:19:15.840Z,1016.59
2017-05-03T02:19:56.428Z,1016.56
2017-05-03T02:20:37.010Z,1016.55
2017-05-03T02:21:17.600Z,1016.54
2017-05-03T02:21:58.164Z,1016.52
2017-05-03T02:22:38.777Z,1016.53
2017-05-03T02:23:19.358Z,1016.57
2017-05-03T02:23:59.960Z,1016.54
2017-05-03T02:24:40.571Z,1016.54
2017-05-03T02:25:21.233Z,1016.59
2017-05-03T02:26:01.811Z,1016.58
2017-05-03T02:26:42.399Z,1016.6
2017-05-03T02:27:22.982Z,1016.58
2017-05-03T02:28:03.570Z,1016.57
2017-05-03T02:28:44.179Z,1016.58
2017-05-03T02:29:24.748Z,1016.57
2017-05-03T02:30:05.318Z,1016.56
2017-05-03T02:30:45.934Z,1016.52
2017-05-03T02:31:26.494Z,1016.54
2017-05-03T02:32:07.100Z,1016.55
2017-05-03T02:32:47.708Z,1016.58
2017-05-03T02:33:28.280Z,1016.55
2017-05-03T02:34:08.869Z,1016.56
2017-05-03T02:34:49.452Z,1016.6
2017-05-03T02:35:30.053Z,1016.58
2017-05-03T02:36:10.619Z,1016.61
2017-05-03T02:36:51.214Z,1016.61
2017-05-03T02:37:31.789Z,1016.63
2017-05-03T02:38:12.375Z,1016.62
2017-05-03T02:38:52.971Z,1016.58
2017-05-03T02:39:33.556Z,1016.6
2017-05-03T02:40:14.192Z,1016.64
2017-05-03T02:40:54.790Z,1016.65
2017-05-03T02:41:35.373Z,1016.61
2017-05-03T02:42:15.933Z,1016.59
2017-05-03T02:42:56.514Z,1016.61
2017-05-03T02:43:37.128Z,1016.65
2017-05-03T02:44:17.731Z,1016.59
2017-05-03T02:44:58.301Z,1016.61
2017-05-03T02:45:38.877Z,1016.56
2017-05-03T02:46:19.478Z,1016.57
2017-05-03T02:47:00.044Z,1016.57
2017-05-03T02:47:40.629Z,1016.53
2017-05-03T02:48:21.231Z,1016.52
2017-05-03T02:49:01.813Z,1016.55
2017-05-03T02:49:42.391Z,1016.56
2017-05-03T02:50:23.003Z,1016.58
2017-05-03T02:51:03.634Z,1016.59
2017-05-03T02:51:44.200Z,1016.58
2017-05-03T02:52:24.775Z,1016.6
2017-05-03T02:53:05.388Z,1016.61
2017-05-03T02:53:45.945Z,1016.6
2017-05-03T02:54:26.530Z,1016.61
2017-05-03T02:55:07.116Z,1016.58
2017-05-03T02:55:47.709Z,1016.63
2017-05-03T02:56:28.347Z,1016.63
2017-05-03T02:57:08.904Z,1016.69
2017-05-03T02:57:49.475Z,1016.67
2017-05-03T02:58:30.079Z,1016.69
2017-05-03T02:59:10.678Z,1016.69
2017-05-03T02:59:51.286Z,1016.71
2017-05-03T03:00:31.876Z,1016.69
2017-05-03T03:01:12.484Z,1016.71
2017-05-03T03:01:53.084Z,1016.73
2017-05-03T03:02:33.683Z,1016.7
2017-05-03T03:03:14.260Z,1016.69
2017-05-03T03:03:54.851Z,1016.7
2017-05-03T03:04:35.454Z,1016.69
2017-05-03T03:05:16.053Z,1016.69
2017-05-03T03:05:56.642Z,1016.63
2017-05-03T03:06:37.210Z,1016.67
2017-05-03T03:07:17.800Z,1016.67
2017-05-03T03:07:58.360Z,1016.68
2017-05-03T03:08:38.972Z,1016.69
2017-05-03T03:09:19.565Z,1016.71
2017-05-03T03:10:00.149Z,1016.71
2017-05-03T03:10:40.724Z,1016.66
2017-05-03T03:11:21.549Z,1016.67
2017-05-03T03:12:02.128Z,1016.72
2017-05-03T03:12:42.723Z,1016.71
2017-05-03T03:13:23.335Z,1016.69
2017-05-03T03:14:03.917Z,1016.69
2017-05-03T03:14:44.482Z,1016.69
2017-05-03T03:15:25.054Z,1016.66
2017-05-03T03:16:05.660Z,1016.69
2017-05-03T03:16:46.251Z,1016.72
2017-05-03T03:17:26.908Z,1016.68
2017-05-03T03:18:07.501Z,1016.66
2017-05-03T03:18:48.090Z,1016.67
2017-05-03T03:19:28.650Z,1016.65
2017-05-03T03:20:09.268Z,1016.68
2017-05-03T03:20:49.842Z,1016.68
2017-05-03T03:21:30.424Z,1016.73
2017-05-03T03:22:11.009Z,1016.73
2017-05-03T03:22:51.591Z,1016.71
2017-05-03T03:23:32.181Z,1016.74
2017-05-03T03:24:12.776Z,1016.78
2017-05-03T03:24:53.351Z,1016.74
2017-05-03T03:25:33.933Z,1016.81
2017-05-03T03:26:14.533Z,1016.76
2017-05-03T03:26:55.094Z,1016.8
2017-05-03T03:27:35.680Z,1016.8
2017-05-03T03:28:16.257Z,1016.79
2017-05-03T03:28:56.888Z,1016.78
2017-05-03T03:29:37.506Z,1016.8
2017-05-03T03:30:18.071Z,1016.76
2017-05-03T03:30:58.631Z,1016.82
2017-05-03T03:31:39.207Z,1016.82
2017-05-03T03:32:19.792Z,1016.82
2017-05-03T03:33:00.374Z,1016.79
2017-05-03T03:33:40.959Z,1016.83
2017-05-03T03:34:21.569Z,1016.86
2017-05-03T03:35:02.132Z,1016.83
2017-05-03T03:35:42.717Z,1016.82
2017-05-03T03:36:23.362Z,1016.77
2017-05-03T03:37:03.974Z,1016.83
2017-05-03T03:37:44.577Z,1016.81
2017-05-03T03:38:25.161Z,1016.83
2017-05-03T03:39:05.776Z,1016.84
2017-05-03T03:39:46.395Z,1016.84
2017-05-03T03:40:26.987Z,1016.87
2017-05-03T03:41:07.574Z,1016.84
2017-05-03T03:41:48.149Z,1016.82
2017-05-03T03:42:28.732Z,1016.85
2017-05-03T03:43:09.337Z,1016.89
2017-05-03T03:43:49.944Z,1016.85
2017-05-03T03:44:30.527Z,1016.87
2017-05-03T03:45:11.105Z,1016.81
2017-05-03T03:45:51.707Z,1016.86
2017-05-03T03:46:32.325Z,1016.83
2017-05-03T03:47:12.911Z,1016.83
2017-05-03T03:47:53.492Z,1016.8
2017-05-03T03:48:34.087Z,1016.76
2017-05-03T03:49:14.691Z,1016.8
2017-05-03T03:49:55.332Z,1016.73
2017-05-03T03:50:35.910Z,1016.72
2017-05-03T03:51:16.522Z,1016.72
2017-05-03T03:51:57.073Z,1016.69
2017-05-03T03:52:37.679Z,1016.72
2017-05-03T03:53:18.271Z,1016.8
2017-05-03T03:53:58.873Z,1016.75
2017-05-03T03:54:39.470Z,1016.73
2017-05-03T03:55:20.079Z,1016.79
2017-05-03T03:56:00.666Z,1016.79
2017-05-03T03:56:41.284Z,1016.78
2017-05-03T03:57:21.870Z,1016.79
2017-05-03T03:58:02.449Z,1016.85
2017-05-03T03:58:43.045Z,1016.82
2017-05-03T03:59:23.630Z,1016.82
2017-05-03T04:00:04.229Z,1016.84
2017-05-03T04:00:44.840Z,1016.87
2017-05-03T04:01:25.438Z,1016.86
2017-05-03T04:02:06.007Z,1016.85
2017-05-03T04:02:46.590Z,1016.87
2017-05-03T04:03:27.175Z,1016.88
2017-05-03T04:04:07.794Z,1016.89
2017-05-03T04:04:48.437Z,1016.9
2017-05-03T04:05:29.021Z,1016.91
2017-05-03T04:06:11.454Z,1016.93
2017-05-03T04:06:52.023Z,1016.97
2017-05-03T04:07:32.603Z,1016.99
2017-05-03T04:08:13.246Z,1017.02
2017-05-03T04:08:53.863Z,1017.02
2017-05-03T04:09:34.420Z,1017.03
2017-05-03T04:10:15.008Z,1017.07
2017-05-03T04:10:55.574Z,1017.05
2017-05-03T04:11:36.182Z,1017.1
2017-05-03T04:12:16.754Z,1017.11
2017-05-03T04:12:57.361Z,1017.14
2017-05-03T04:13:37.929Z,1017.16
2017-05-03T04:14:18.528Z,1017.19
2017-05-03T04:14:59.104Z,1017.17
2017-05-03T04:15:39.677Z,1017.13
2017-05-03T04:16:20.246Z,1017.14
2017-05-03T04:17:00.854Z,1017.12
2017-05-03T04:17:41.495Z,1017.12
2017-05-03T04:18:22.098Z,1017.12
2017-05-03T04:19:02.699Z,1017.15
2017-05-03T04:19:43.305Z,1017.11
2017-05-03T04:20:23.923Z,1017.11
2017-05-03T04:21:04.518Z,1017.13
2017-05-03T04:21:45.133Z,1017.19
2017-05-03T04:22:25.741Z,1017.2
2017-05-03T04:23:06.308Z,1017.19
2017-05-03T04:23:46.923Z,1017.18
2017-05-03T04:24:27.505Z,1017.22
2017-05-03T04:25:08.139Z,1017.18
2017-05-03T04:25:48.718Z,1017.17
2017-05-03T04:26:29.345Z,1017.14
2017-05-03T04:27:09.979Z,1017.17
2017-05-03T04:27:50.565Z,1017.2
2017-05-03T04:28:31.157Z,1017.16
2017-05-03T04:29:11.734Z,1017.19
2017-05-03T04:29:52.364Z,1017.19
2017-05-03T04:30:32.944Z,1017.17
2017-05-03T04:31:13.567Z,1017.2
2017-05-03T04:31:54.141Z,1017.19
2017-05-03T04:32:34.698Z,1017.22
2017-05-03T04:33:15.284Z,1017.21
2017-05-03T04:33:55.869Z,1017.22
2017-05-03T04:34:36.456Z,1017.23
2017-05-03T04:35:17.057Z,1017.2
2017-05-03T04:35:57.663Z,1017.26
2017-05-03T04:36:38.250Z,1017.29
2017-05-03T04:37:18.850Z,1017.27
2017-05-03T04:37:59.429Z,1017.32
2017-05-03T04:38:40.008Z,1017.3
2017-05-03T04:39:20.605Z,1017.29
2017-05-03T04:40:01.196Z,1017.28
2017-05-03T04:40:41.769Z,1017.33
2017-05-03T04:41:22.338Z,1017.32
2017-05-03T04:42:02.916Z,1017.33
2017-05-03T04:42:43.484Z,1017.36
2017-05-03T04:43:24.065Z,1017.36
2017-05-03T04:44:04.740Z,1017.44
2017-05-03T04:44:45.329Z,1017.36
2017-05-03T04:45:25.923Z,1017.4
2017-05-03T04:46:06.509Z,1017.37
2017-05-03T04:46:47.091Z,1017.36
2017-05-03T04:47:27.683Z,1017.34
2017-05-03T04:48:08.299Z,1017.34
2017-05-03T04:48:48.901Z,1017.36
2017-05-03T04:49:29.467Z,1017.35
2017-05-03T04:50:10.043Z,1017.36
2017-05-03T04:50:50.638Z,1017.36
2017-05-03T04:51:31.260Z,1017.34
2017-05-03T04:52:11.846Z,1017.32
2017-05-03T04:52:52.445Z,1017.3
2017-05-03T04:53:33.007Z,1017.32
2017-05-03T04:54:13.636Z,1017.32
2017-05-03T04:54:54.215Z,1017.33
2017-05-03T04:55:34.895Z,1017.35
2017-05-03T04:56:15.475Z,1017.36
2017-05-03T04:56:56.090Z,1017.4
2017-05-03T04:57:36.675Z,1017.36
2017-05-03T04:58:17.264Z,1017.39
2017-05-03T04:58:57.863Z,1017.4
2017-05-03T04:59:38.481Z,1017.41
2017-05-03T05:00:19.078Z,1017.43
2017-05-03T05:00:59.696Z,1017.46
2017-05-03T05:01:40.288Z,1017.43
2017-05-03T05:02:20.877Z,1017.42
2017-05-03T05:03:01.447Z,1017.49
2017-05-03T05:03:42.052Z,1017.52
2017-05-03T05:04:22.643Z,1017.5
2017-05-03T05:05:03.206Z,1017.53
2017-05-03T05:05:43.804Z,1017.55
2017-05-03T05:06:24.454Z,1017.5
2017-05-03T05:07:05.029Z,1017.47
2017-05-03T05:07:45.615Z,1017.49
2017-05-03T05:08:26.252Z,1017.45
2017-05-03T05:09:06.813Z,1017.48
2017-05-03T05:09:47.430Z,1017.52
2017-05-03T05:10:28.027Z,1017.52
2017-05-03T05:11:08.623Z,1017.53
2017-05-03T05:11:49.261Z,1017.57
2017-05-03T05:12:29.845Z,1017.52
2017-05-03T05:13:10.424Z,1017.58
2017-05-03T05:13:51.027Z,1017.57
2017-05-03T05:14:32.404Z,1017.6
2017-05-03T05:15:13.009Z,1017.6
2017-05-03T05:15:53.625Z,1017.61
2017-05-03T05:16:34.219Z,1017.65
2017-05-03T05:17:15.312Z,1017.65
2017-05-03T05:17:56.082Z,1017.67
2017-05-03T05:18:36.694Z,1017.68
2017-05-03T05:19:17.243Z,1017.67
2017-05-03T05:19:57.838Z,1017.67
2017-05-03T05:20:38.436Z,1017.64
2017-05-03T05:21:19.002Z,1017.69
2017-05-03T05:21:59.637Z,1017.68
2017-05-03T05:22:40.238Z,1017.63
2017-05-03T05:23:20.819Z,1017.63
2017-05-03T05:24:01.462Z,1017.65
2017-05-03T05:24:42.058Z,1017.65
2017-05-03T05:25:22.645Z,1017.62
2017-05-03T05:26:03.269Z,1017.62
2017-05-03T05:26:43.852Z,1017.63
2017-05-03T05:27:24.455Z,1017.64
2017-05-03T05:28:05.071Z,1017.67
2017-05-03T05:28:45.767Z,1017.66
2017-05-03T05:29:26.443Z,1017.67
2017-05-03T05:30:07.033Z,1017.64
2017-05-03T05:30:47.635Z,1017.62
2017-05-03T05:31:28.259Z,1017.68
2017-05-03T05:32:08.887Z,1017.63
2017-05-03T05:32:49.521Z,1017.62
2017-05-03T05:33:30.120Z,1017.67
2017-05-03T05:34:10.702Z,1017.64
2017-05-03T05:34:51.326Z,1017.62
2017-05-03T05:35:31.934Z,1017.62
2017-05-03T05:36:12.545Z,1017.69
2017-05-03T05:36:53.137Z,1017.67
2017-05-03T05:37:33.711Z,1017.64
2017-05-03T05:38:14.305Z,1017.67
2017-05-03T05:38:54.866Z,1017.71
2017-05-03T05:39:35.451Z,1017.63
2017-05-03T05:40:16.118Z,1017.65
2017-05-03T05:40:56.728Z,1017.65
2017-05-03T05:41:37.367Z,1017.66
2017-05-03T05:42:18.004Z,1017.66
2017-05-03T05:42:58.600Z,1017.61
2017-05-03T05:43:39.172Z,1017.63
2017-05-03T05:44:19.750Z,1017.62
2017-05-03T05:45:00.324Z,1017.61
2017-05-03T05:45:40.917Z,1017.61
2017-05-03T05:46:21.487Z,1017.62
2017-05-03T05:47:02.124Z,1017.62
2017-05-03T05:47:42.694Z,1017.62
2017-05-03T05:48:23.287Z,1017.64
2017-05-03T05:49:03.866Z,1017.62
2017-05-03T05:49:44.450Z,1017.61
2017-05-03T05:50:25.057Z,1017.61
2017-05-03T05:51:05.640Z,1017.62
2017-05-03T05:51:46.233Z,1017.61
2017-05-03T05:52:26.886Z,1017.62
2017-05-03T05:53:07.456Z,1017.57
2017-05-03T05:53:48.040Z,1017.63
2017-05-03T05:54:28.613Z,1017.61
2017-05-03T05:55:09.219Z,1017.6
2017-05-03T05:55:49.808Z,1017.62
2017-05-03T05:56:30.443Z,1017.64
2017-05-03T05:57:11.028Z,1017.62
2017-05-03T05:57:51.605Z,1017.6
2017-05-03T05:58:32.193Z,1017.64
2017-05-03T05:59:12.769Z,1017.66
2017-05-03T05:59:53.337Z,1017.67
2017-05-03T06:00:33.937Z,1017.62
2017-05-03T06:01:14.520Z,1017.67
2017-05-03T06:01:55.109Z,1017.67
2017-05-03T06:02:35.727Z,1017.66
2017-05-03T06:03:16.324Z,1017.72
2017-05-03T06:03:56.922Z,1017.69
2017-05-03T06:04:37.496Z,1017.7
2017-05-03T06:05:18.079Z,1017.72
2017-05-03T06:05:58.696Z,1017.71
2017-05-03T06:06:39.282Z,1017.77
2017-05-03T06:07:19.897Z,1017.74
2017-05-03T06:08:00.485Z,1017.77
2017-05-03T06:08:41.061Z,1017.75
2017-05-03T06:09:21.659Z,1017.79
2017-05-03T06:10:02.241Z,1017.78
2017-05-03T06:10:42.835Z,1017.82
2017-05-03T06:11:23.425Z,1017.78
2017-05-03T06:12:04.014Z,1017.81
2017-05-03T06:12:44.586Z,1017.77
2017-05-03T06:13:25.172Z,1017.82
2017-05-03T06:14:05.751Z,1017.78
2017-05-03T06:14:46.365Z,1017.81
2017-05-03T06:15:26.994Z,1017.84
2017-05-03T06:16:07.590Z,1017.89
2017-05-03T06:16:48.247Z,1017.84
2017-05-03T06:17:28.811Z,1017.84
2017-05-03T06:18:09.407Z,1017.84
2017-05-03T06:18:50.029Z,1017.82
2017-05-03T06:19:30.650Z,1017.82
2017-05-03T06:20:11.226Z,1017.83
2017-05-03T06:20:51.815Z,1017.84
2017-05-03T06:21:32.409Z,1017.84
2017-05-03T06:22:12.984Z,1017.84
2017-05-03T06:22:53.585Z,1017.83
2017-05-03T06:23:34.214Z,1017.88
2017-05-03T06:24:14.847Z,1017.84
2017-05-03T06:24:55.436Z,1017.85
2017-05-03T06:25:36.021Z,1017.84
2017-05-03T06:26:16.597Z,1017.83
2017-05-03T06:26:57.216Z,1017.83
2017-05-03T06:27:37.772Z,1017.81
2017-05-03T06:28:18.404Z,1017.88
2017-05-03T06:28:59.001Z,1017.82
2017-05-03T06:29:39.608Z,1017.84
2017-05-03T06:30:20.180Z,1017.85
2017-05-03T06:31:00.771Z,1017.83
2017-05-03T06:31:41.391Z,1017.88
2017-05-03T06:32:22.029Z,1017.86
2017-05-03T06:33:02.621Z,1017.87
2017-05-03T06:33:43.220Z,1017.89
2017-05-03T06:34:23.788Z,1017.85
2017-05-03T06:35:04.375Z,1017.89
2017-05-03T06:35:44.956Z,1017.9
2017-05-03T06:36:25.573Z,1017.86
2017-05-03T06:37:06.230Z,1017.87
2017-05-03T06:37:46.785Z,1017.86
2017-05-03T06:38:27.371Z,1017.86
2017-05-03T06:39:08.056Z,1017.83
2017-05-03T06:39:48.644Z,1017.83
2017-05-03T06:40:29.234Z,1017.83
2017-05-03T06:41:09.821Z,1017.8
2017-05-03T06:41:50.422Z,1017.79
2017-05-03T06:42:30.985Z,1017.84
2017-05-03T06:43:11.609Z,1017.78
2017-05-03T06:43:52.197Z,1017.81
2017-05-03T06:44:32.856Z,1017.86
2017-05-03T06:45:13.474Z,1017.84
2017-05-03T06:45:54.065Z,1017.88
2017-05-03T06:46:34.671Z,1017.87
2017-05-03T06:47:15.303Z,1017.87
2017-05-03T06:47:55.883Z,1017.86
2017-05-03T06:48:36.500Z,1017.89
2017-05-03T06:49:17.079Z,1017.89
2017-05-03T06:49:57.666Z,1017.89
2017-05-03T06:50:38.275Z,1017.88
2017-05-03T06:51:18.937Z,1017.89
2017-05-03T06:51:59.556Z,1017.89
2017-05-03T06:52:40.185Z,1017.87
2017-05-03T06:53:20.791Z,1017.91
2017-05-03T06:54:01.422Z,1017.89
2017-05-03T06:54:50.116Z,1017.91
2017-05-03T06:55:41.362Z,1017.87
2017-05-03T06:56:22.013Z,1017.93
2017-05-03T06:57:02.659Z,1017.94
2017-05-03T06:57:43.246Z,1017.94
2017-05-03T06:58:23.837Z,1017.98
2017-05-03T06:59:04.445Z,1017.97
2017-05-03T06:59:45.009Z,1017.94
2017-05-03T07:00:25.601Z,1017.98
2017-05-03T07:01:06.169Z,1017.95
2017-05-03T07:01:46.744Z,1017.94
2017-05-03T07:02:27.318Z,1017.91
2017-05-03T07:03:07.904Z,1017.89
2017-05-03T07:03:48.503Z,1017.91
2017-05-03T07:04:29.126Z,1017.93
2017-05-03T07:05:09.711Z,1017.93
2017-05-03T07:05:50.278Z,1017.94
2017-05-03T07:06:30.863Z,1017.94
2017-05-03T07:07:11.593Z,1017.94
2017-05-03T07:07:52.023Z,1017.97
2017-05-03T07:08:32.628Z,1017.93
2017-05-03T07:09:13.220Z,1017.94
2017-05-03T07:09:53.836Z,1017.9
2017-05-03T07:10:34.638Z,1017.9
2017-05-03T07:11:15.243Z,1017.93
2017-05-03T07:11:55.808Z,1017.96
2017-05-03T07:12:36.449Z,1017.98
2017-05-03T07:13:17.053Z,1017.93
2017-05-03T07:13:57.614Z,1017.97
2017-05-03T07:14:38.216Z,1018.03
2017-05-03T07:15:18.847Z,1018.02
2017-05-03T07:15:59.406Z,1018.01
2017-05-03T07:16:40.084Z,1018.01
2017-05-03T07:17:20.677Z,1017.97
2017-05-03T07:18:01.275Z,1018.01
2017-05-03T07:18:41.870Z,1017.97
2017-05-03T07:19:22.472Z,1017.98
2017-05-03T07:20:03.054Z,1017.96
2017-05-03T07:20:43.641Z,1017.98
2017-05-03T07:21:24.218Z,1017.96
2017-05-03T07:22:04.825Z,1017.97
2017-05-03T07:22:45.429Z,1017.94
2017-05-03T07:23:26.047Z,1017.97
2017-05-03T07:24:06.664Z,1017.98
2017-05-03T07:24:47.248Z,1018.03
2017-05-03T07:25:27.831Z,1017.99
2017-05-03T07:26:08.405Z,1018.03
2017-05-03T07:26:48.982Z,1018
2017-05-03T07:27:29.591Z,1018
2017-05-03T07:28:10.244Z,1018
2017-05-03T07:28:50.871Z,1018.02
2017-05-03T07:29:31.449Z,1017.99
2017-05-03T07:30:12.101Z,1018.03
2017-05-03T07:30:52.698Z,1018.03
2017-05-03T07:31:33.289Z,1018.01
2017-05-03T07:32:13.861Z,1018.03
2017-05-03T07:32:54.952Z,1018.06
2017-05-03T07:33:35.703Z,1018.02
2017-05-03T07:34:17.250Z,1018.01
2017-05-03T07:34:58.181Z,1018.02
2017-05-03T07:35:39.009Z,1018.07
2017-05-03T07:36:19.582Z,1018.07
2017-05-03T07:37:00.179Z,1018.03
2017-05-03T07:37:40.766Z,1018.04
2017-05-03T07:38:21.431Z,1017.99
2017-05-03T07:39:02.013Z,1017.98
2017-05-03T07:39:42.672Z,1018
2017-05-03T07:40:23.260Z,1017.98
2017-05-03T07:41:03.883Z,1017.98
2017-05-03T07:41:44.464Z,1018.01
2017-05-03T07:42:25.090Z,1018.04
2017-05-03T07:43:05.673Z,1018.04
2017-05-03T07:43:46.247Z,1018.07
2017-05-03T07:44:26.845Z,1018.04
2017-05-03T07:45:07.433Z,1018.04
2017-05-03T07:45:48.101Z,1018.07
2017-05-03T07:46:28.751Z,1018.08
2017-05-03T07:47:09.395Z,1018.06
2017-05-03T07:47:49.979Z,1018.03
2017-05-03T07:48:30.576Z,1018.07
2017-05-03T07:50:49.206Z,1018.14
2017-05-03T07:51:29.786Z,1018.11
2017-05-03T07:52:10.362Z,1018.1
2017-05-03T07:52:50.989Z,1018.13
2017-05-03T07:53:31.629Z,1018.13
2017-05-03T07:54:12.198Z,1018.18
2017-05-03T07:54:52.792Z,1018.14
2017-05-03T07:55:33.420Z,1018.14
2017-05-03T07:56:13.987Z,1018.17
2017-05-03T07:56:54.606Z,1018.14
2017-05-03T07:57:35.207Z,1018.14
2017-05-03T07:58:15.809Z,1018.16
2017-05-03T07:58:56.504Z,1018.13
2017-05-03T07:59:37.106Z,1018.18
2017-05-03T08:00:17.681Z,1018.22
2017-05-03T08:00:58.261Z,1018.21
2017-05-03T08:01:38.843Z,1018.23
2017-05-03T08:02:19.407Z,1018.21
2017-05-03T08:02:59.983Z,1018.23
2017-05-03T08:03:40.560Z,1018.23
2017-05-03T08:04:21.156Z,1018.26
2017-05-03T08:05:01.773Z,1018.3
2017-05-03T08:05:42.369Z,1018.28
2017-05-03T08:06:22.973Z,1018.27
2017-05-03T08:07:03.590Z,1018.26
2017-05-03T08:07:44.183Z,1018.28
2017-05-03T08:08:24.766Z,1018.31
2017-05-03T08:09:05.382Z,1018.3
2017-05-03T08:09:46.004Z,1018.27
2017-05-03T08:10:26.638Z,1018.28
2017-05-03T08:11:07.219Z,1018.26
2017-05-03T08:11:48.009Z,1018.26
2017-05-03T08:12:28.620Z,1018.31
2017-05-03T08:13:09.197Z,1018.39
2017-05-03T08:13:49.774Z,1018.3
2017-05-03T08:14:30.472Z,1018.36
2017-05-03T08:15:11.062Z,1018.31